Time;durP1;ratioP1;P1;durP2;ratioP2;P2;SDS_P1;SDS_P2;PMS_P1;PMS_P2;Temp;Humidity;BMP_temperature;BMP_pressure;BME280_temperature;BME280_humidity;BME280_pressure;Samples;Min_cycle;Max_cycle;Signal;HPM_P1;HPM_P2
2023/12/17 00:01:24;;;;;;;31.45;15.13;;;;;;;8.30;100.00;103723.63;5030880;28;20040;-77
2023/12/17 00:03:50;;;;;;;34.10;16.13;;;;;;;8.35;100.00;103726.78;5038619;28;20031;-77
2023/12/17 00:06:16;;;;;;;32.90;15.70;;;;;;;8.37;100.00;103728.50;5038196;28;20514;-77
2023/12/17 00:08:42;;;;;;;33.55;16.23;;;;;;;8.37;100.00;103729.34;5041726;28;20079;-77
2023/12/17 00:11:08;;;;;;;32.55;15.82;;;;;;;8.35;100.00;103729.44;5038355;28;20029;-77
2023/12/17 00:13:35;;;;;;;30.80;16.17;;;;;;;8.35;100.00;103724.13;5036334;28;20040;-77
2023/12/17 00:16:00;;;;;;;32.33;14.60;;;;;;;8.38;100.00;103719.56;5034642;28;20025;-77
2023/12/17 00:18:25;;;;;;;31.15;15.23;;;;;;;8.33;100.00;103702.16;5024157;28;20102;-77
2023/12/17 00:20:51;;;;;;;34.10;17.02;;;;;;;8.39;100.00;103715.97;5032991;28;20108;-77
2023/12/17 00:23:16;;;;;;;32.28;16.35;;;;;;;8.39;100.00;103700.88;5016765;28;20025;-77
2023/12/17 00:25:42;;;;;;;30.88;15.45;;;;;;;8.39;100.00;103705.31;5040938;28;20037;-77
2023/12/17 00:28:07;;;;;;;28.98;14.00;;;;;;;8.38;100.00;103692.97;5040404;28;20049;-77
2023/12/17 00:30:33;;;;;;;30.13;15.32;;;;;;;8.39;100.00;103692.91;5043094;28;20477;-77
2023/12/17 00:32:58;;;;;;;34.35;15.20;;;;;;;8.38;100.00;103691.16;5016592;28;20042;-77
2023/12/17 00:35:24;;;;;;;31.15;14.85;;;;;;;8.39;100.00;103695.56;5022596;28;20099;-77
2023/12/17 00:37:49;;;;;;;29.50;14.30;;;;;;;8.38;100.00;103692.97;5023544;28;20034;-77
2023/12/17 00:40:14;;;;;;;34.08;16.10;;;;;;;8.40;100.00;103689.28;5041251;28;20029;-77
2023/12/17 00:42:40;;;;;;;32.75;14.90;;;;;;;8.38;100.00;103692.97;5037477;28;20140;-76
2023/12/17 00:45:05;;;;;;;30.38;14.80;;;;;;;8.39;100.00;103686.72;5031622;28;20032;-77
2023/12/17 00:47:31;;;;;;;30.13;15.25;;;;;;;8.42;100.00;103699.81;5027892;28;20029;-77
2023/12/17 00:49:56;;;;;;;31.30;14.95;;;;;;;8.43;100.00;103699.69;5032835;28;20033;-77
2023/12/17 00:52:22;;;;;;;31.35;16.35;;;;;;;8.41;100.00;103690.97;5033781;28;20036;-77
2023/12/17 00:54:51;;;;;;;26.80;12.85;;;;;;;8.40;100.00;103693.75;5041103;28;20090;-77
2023/12/17 00:57:17;;;;;;;29.88;15.10;;;;;;;8.40;100.00;103683.94;5035594;28;20397;-77
2023/12/17 00:59:42;;;;;;;28.70;13.68;;;;;;;8.42;100.00;103681.19;5030126;28;20128;-77
2023/12/17 01:02:07;;;;;;;28.80;13.90;;;;;;;8.44;100.00;103674.78;5032671;28;20116;-77
2023/12/17 01:04:33;;;;;;;31.58;14.75;;;;;;;8.40;100.00;103668.00;5037225;28;20128;-77
2023/12/17 01:06:58;;;;;;;27.52;12.75;;;;;;;8.45;100.00;103680.97;5042071;28;20028;-77
2023/12/17 01:09:24;;;;;;;28.77;13.30;;;;;;;8.41;100.00;103669.72;5041942;28;20021;-77
2023/12/17 01:11:49;;;;;;;28.02;13.43;;;;;;;8.46;100.00;103675.53;5039350;28;20045;-77
2023/12/17 01:14:15;;;;;;;35.40;15.73;;;;;;;8.44;100.00;103674.78;5015248;28;20087;-77
2023/12/17 01:16:40;;;;;;;28.70;13.90;;;;;;;8.47;100.00;103679.03;5011427;28;20080;-77
2023/12/17 01:19:05;;;;;;;30.67;12.88;;;;;;;8.43;100.00;103667.75;5031459;28;20037;-77
2023/12/17 01:21:31;;;;;;;27.10;12.75;;;;;;;8.47;100.00;103676.38;5018304;28;20029;-77
2023/12/17 01:23:58;;;;;;;35.88;14.45;;;;;;;8.46;100.00;103679.97;5030250;28;20025;-77
2023/12/17 01:26:26;;;;;;;27.85;14.32;;;;;;;8.46;100.00;103687.97;5041995;28;20029;-77
2023/12/17 01:28:54;;;;;;;30.67;13.57;;;;;;;8.47;100.00;103695.00;5016114;28;20420;-77
2023/12/17 01:31:20;;;;;;;30.90;14.13;;;;;;;8.47;100.00;103690.53;5041208;28;20033;-77
2023/12/17 01:33:45;;;;;;;33.20;15.48;;;;;;;8.49;100.00;103699.25;5039592;28;20036;-77
2023/12/17 01:36:11;;;;;;;31.77;13.70;;;;;;;8.44;100.00;103690.75;5042632;28;20115;-77
2023/12/17 01:38:36;;;;;;;33.63;13.88;;;;;;;8.44;100.00;103693.41;5016410;28;20535;-77
2023/12/17 01:41:02;;;;;;;46.28;15.57;;;;;;;8.49;100.00;103704.56;5016796;28;20033;-77
2023/12/17 01:43:27;;;;;;;31.08;13.20;;;;;;;8.50;100.00;103702.75;5032012;28;20069;-77
2023/12/17 01:45:54;;;;;;;28.42;12.48;;;;;;;8.50;100.00;103711.56;5040494;28;20037;-77
2023/12/17 01:48:20;;;;;;;29.88;14.30;;;;;;;8.51;100.00;103705.31;5039223;28;20044;-77
2023/12/17 01:50:46;;;;;;;28.02;11.60;;;;;;;8.52;100.00;103712.31;5023709;28;20045;-77
2023/12/17 01:53:13;;;;;;;29.88;14.18;;;;;;;8.51;100.00;103707.09;5043477;28;20370;-77
2023/12/17 01:55:39;;;;;;;25.30;10.80;;;;;;;8.52;100.00;103706.16;5023943;28;20029;-77
2023/12/17 01:58:05;;;;;;;30.52;13.00;;;;;;;8.50;100.00;103700.94;5030077;28;20033;-77
2023/12/17 02:00:30;;;;;;;27.65;12.82;;;;;;;8.51;100.00;103699.13;5038027;28;20080;-77
2023/12/17 02:02:55;;;;;;;32.33;14.07;;;;;;;8.52;100.00;103706.16;5044835;28;20033;-77
2023/12/17 02:05:21;;;;;;;30.80;13.40;;;;;;;8.52;100.00;103714.13;5036678;28;20030;-77
2023/12/17 02:07:47;;;;;;;31.15;14.00;;;;;;;8.53;100.00;103707.84;5038432;28;20093;-77
2023/12/17 02:10:13;;;;;;;25.85;12.85;;;;;;;8.50;100.00;103697.44;5033435;28;20060;-77
2023/12/17 02:12:39;;;;;;;32.03;13.05;;;;;;;8.53;100.00;103710.50;5014602;28;20610;-77
2023/12/17 02:15:06;;;;;;;27.95;13.80;;;;;;;8.48;100.00;103700.19;5041753;28;20056;-77
2023/12/17 02:17:31;;;;;;;31.33;15.25;;;;;;;8.48;100.00;103697.53;5014073;28;20033;-77
2023/12/17 02:19:58;;;;;;;34.33;14.55;;;;;;;8.52;100.00;103696.34;5006021;28;20039;-77
2023/12/17 02:22:24;;;;;;;29.33;13.48;;;;;;;8.51;100.00;103699.13;5034365;28;20037;-77
2023/12/17 02:24:51;;;;;;;30.48;12.68;;;;;;;8.51;100.00;103694.66;5037434;28;20037;-83
2023/12/17 02:27:24;;;;;;;32.10;13.85;;;;;;;8.45;100.00;103686.28;5038687;28;20053;-83
2023/12/17 02:29:50;;;;;;;31.88;14.52;;;;;;;8.46;100.00;103695.94;5040828;28;20025;-83
2023/12/17 02:32:17;;;;;;;26.88;14.07;;;;;;;8.52;100.00;103698.16;5032452;28;20033;-83
2023/12/17 02:34:43;;;;;;;31.25;14.05;;;;;;;8.48;100.00;103696.69;5030542;28;20495;-83
2023/12/17 02:37:08;;;;;;;27.40;12.05;;;;;;;8.49;100.00;103695.75;5024467;28;20025;-83
2023/12/17 02:39:33;;;;;;;29.65;13.48;;;;;;;8.47;100.00;103697.66;5038201;28;20044;-83
2023/12/17 02:41:59;;;;;;;31.17;12.13;;;;;;;8.49;100.00;103707.22;5040234;28;20025;-83
2023/12/17 02:44:24;;;;;;;29.80;13.68;;;;;;;8.50;100.00;103694.78;5019766;28;20040;-83
2023/12/17 02:46:51;;;;;;;27.05;12.77;;;;;;;8.49;100.00;103701.06;5022066;28;20462;-83
2023/12/17 02:49:16;;;;;;;31.13;15.35;;;;;;;8.48;100.00;103694.88;5032979;28;20025;-83
2023/12/17 02:51:42;;;;;;;27.95;11.85;;;;;;;8.49;100.00;103690.44;5007764;28;20472;-83
2023/12/17 02:54:07;;;;;;;31.00;12.75;;;;;;;8.50;100.00;103697.44;5019253;28;20108;-83
2023/12/17 02:56:39;;;;;;;29.48;13.35;;;;;;;8.51;100.00;103689.34;5035229;28;20485;-83
2023/12/17 02:59:07;;;;;;;27.25;13.45;;;;;;;8.50;100.00;103681.47;5039814;28;20087;-83
2023/12/17 03:01:32;;;;;;;27.75;12.60;;;;;;;8.47;100.00;103677.22;5037374;28;20116;-83
2023/12/17 03:03:58;;;;;;;27.65;12.43;;;;;;;8.50;100.00;103681.47;5023627;28;20451;-84
2023/12/17 03:06:23;;;;;;;29.85;14.13;;;;;;;8.46;100.00;103672.88;5039919;28;20124;-83
2023/12/17 03:08:48;;;;;;;28.55;12.77;;;;;;;8.50;100.00;103682.31;5037269;28;20025;-83
2023/12/17 03:11:14;;;;;;;29.23;14.27;;;;;;;8.51;100.00;103683.16;5040088;28;20057;-83
2023/12/17 03:13:39;;;;;;;26.52;12.05;;;;;;;8.49;100.00;103685.09;5037234;28;20064;-83
2023/12/17 03:16:08;;;;;;;29.73;12.80;;;;;;;8.50;100.00;103678.81;5022994;28;20034;-83
2023/12/17 03:18:34;;;;;;;29.45;13.20;;;;;;;8.47;100.00;103674.56;5021054;28;20109;-83
2023/12/17 03:20:59;;;;;;;28.42;12.18;;;;;;;8.47;100.00;103673.72;5034782;28;20124;-83
2023/12/17 03:23:24;;;;;;;29.50;14.18;;;;;;;8.49;100.00;103677.97;5033613;28;20036;-83
2023/12/17 03:25:50;;;;;;;27.35;11.30;;;;;;;8.47;100.00;103673.72;5036799;28;20037;-83
2023/12/17 03:28:15;;;;;;;28.52;14.13;;;;;;;8.46;100.00;103674.66;5039061;28;20485;-83
2023/12/17 03:30:40;;;;;;;27.67;12.45;;;;;;;8.46;100.00;103672.00;5039024;28;20440;-83
2023/12/17 03:33:06;;;;;;;26.45;12.10;;;;;;;8.45;100.00;103670.31;5035463;28;20087;-83
2023/12/17 03:35:31;;;;;;;27.60;12.02;;;;;;;8.44;100.00;103666.81;5020492;28;20539;-83
2023/12/17 03:37:56;;;;;;;29.50;14.57;;;;;;;8.43;100.00;103667.75;5034648;28;20440;-83
2023/12/17 03:40:22;;;;;;;29.05;11.73;;;;;;;8.43;100.00;103667.75;5019293;28;20037;-83
2023/12/17 03:42:47;;;;;;;28.58;12.18;;;;;;;8.44;100.00;103666.81;5015904;28;20029;-83
2023/12/17 03:45:12;;;;;;;29.85;13.32;;;;;;;8.45;100.00;103665.84;5039162;28;20476;-83
2023/12/17 03:47:46;;;;;;;27.50;11.77;;;;;;;8.44;100.00;103655.34;5038723;28;20468;-83
2023/12/17 03:50:12;;;;;;;28.95;13.73;;;;;;;8.39;100.00;103638.84;5029211;28;20033;-83
2023/12/17 03:52:37;;;;;;;29.23;13.20;;;;;;;8.39;100.00;103645.03;5037089;28;20037;-83
2023/12/17 03:55:03;;;;;;;27.25;12.82;;;;;;;8.41;100.00;103643.13;5037997;28;20079;-83
2023/12/17 03:57:28;;;;;;;29.90;12.20;;;;;;;8.44;100.00;103645.53;5033085;28;20455;-83
2023/12/17 03:59:53;;;;;;;27.05;10.15;;;;;;;8.44;100.00;103652.69;5033155;28;20041;-83
2023/12/17 04:02:19;;;;;;;25.40;10.18;;;;;;;8.42;100.00;103643.97;5033159;28;20040;-83
2023/12/17 04:04:44;;;;;;;25.60;10.80;;;;;;;8.42;100.00;103649.28;5039354;28;20033;-83
2023/12/17 04:07:09;;;;;;;23.73;9.40;;;;;;;8.34;100.00;103634.69;5020214;28;20064;-83
2023/12/17 04:09:35;;;;;;;21.27;9.40;;;;;;;8.38;100.00;103634.47;5005760;28;20037;-83
2023/12/17 04:12:00;;;;;;;22.80;9.50;;;;;;;8.38;100.00;103627.31;5021683;28;20082;-83
2023/12/17 04:14:25;;;;;;;25.45;10.45;;;;;;;8.37;100.00;103625.63;5036432;28;20781;-83
2023/12/17 04:16:51;;;;;;;24.58;9.98;;;;;;;8.39;100.00;103633.53;5034897;28;20383;-83
2023/12/17 04:19:16;;;;;;;19.42;8.48;;;;;;;8.39;100.00;103633.53;5033289;28;20087;-83
2023/12/17 04:21:41;;;;;;;22.08;9.10;;;;;;;8.40;100.00;103627.25;5031236;28;20064;-83
2023/12/17 04:24:07;;;;;;;21.88;8.38;;;;;;;8.35;100.00;103617.75;5032726;28;20090;-83
2023/12/17 04:26:32;;;;;;;17.77;7.97;;;;;;;8.38;100.00;103623.81;4985337;28;20028;-83
2023/12/17 04:28:58;;;;;;;20.02;7.28;;;;;;;8.39;100.00;103621.09;5036826;28;20976;-77
2023/12/17 04:31:23;;;;;;;21.80;9.13;;;;;;;8.38;100.00;103621.16;5013793;28;20559;-77
2023/12/17 04:33:49;;;;;;;19.02;8.52;;;;;;;8.35;100.00;103611.59;5030278;28;20072;-77
2023/12/17 04:36:14;;;;;;;16.75;8.82;;;;;;;8.33;100.00;103608.19;5027449;28;20527;-77
2023/12/17 04:38:41;;;;;;;21.55;8.50;;;;;;;8.34;100.00;103615.25;5019431;28;20116;-77
2023/12/17 04:41:06;;;;;;;18.65;7.13;;;;;;;8.32;100.00;103612.69;4997826;28;20044;-77
2023/12/17 04:43:32;;;;;;;20.73;8.73;;;;;;;8.34;100.00;103618.75;5036891;28;20038;-77
2023/12/17 04:45:57;;;;;;;18.63;7.43;;;;;;;8.33;100.00;103619.72;5027028;28;20493;-77
2023/12/17 04:48:23;;;;;;;19.98;6.95;;;;;;;8.34;100.00;103617.91;5034769;28;20084;-77
2023/12/17 04:50:48;;;;;;;19.52;7.97;;;;;;;8.33;100.00;103619.72;5032464;28;20039;-77
2023/12/17 04:53:14;;;;;;;20.38;7.63;;;;;;;8.34;100.00;103629.38;5037020;28;20025;-77
2023/12/17 04:55:39;;;;;;;19.63;7.38;;;;;;;8.30;100.00;103625.22;5022734;28;20030;-77
2023/12/17 04:58:04;;;;;;;17.80;6.97;;;;;;;8.30;100.00;103616.41;5037634;28;20033;-77
2023/12/17 05:00:30;;;;;;;18.73;7.72;;;;;;;8.32;100.00;103622.47;5041626;28;20029;-77
2023/12/17 05:02:55;;;;;;;20.52;7.50;;;;;;;8.29;100.00;103618.22;5042110;28;20025;-78
2023/12/17 05:05:22;;;;;;;18.63;7.95;;;;;;;8.30;100.00;103619.91;5006405;28;20048;-77
2023/12/17 05:07:48;;;;;;;20.80;7.45;;;;;;;8.26;100.00;103605.16;5037110;28;20108;-77
2023/12/17 05:10:13;;;;;;;17.83;7.68;;;;;;;8.27;100.00;103606.00;5039993;28;20465;-77
2023/12/17 05:12:39;;;;;;;18.70;9.63;;;;;;;8.28;100.00;103607.72;5025039;28;20033;-77
2023/12/17 05:15:05;;;;;;;20.60;7.90;;;;;;;8.26;100.00;103613.16;5024383;28;20026;-77
2023/12/17 05:17:31;;;;;;;21.17;9.40;;;;;;;8.26;100.00;103620.28;5024384;28;20034;-78
2023/12/17 05:19:56;;;;;;;17.23;6.85;;;;;;;8.25;100.00;103618.56;5023517;28;20092;-78
2023/12/17 05:22:22;;;;;;;18.58;8.25;;;;;;;8.25;100.00;103621.22;5021567;28;20042;-77
2023/12/17 05:24:48;;;;;;;20.42;8.35;;;;;;;8.24;100.00;103619.53;5038999;28;20110;-77
2023/12/17 05:27:14;;;;;;;19.33;7.93;;;;;;;8.23;100.00;103618.69;5024467;28;20032;-78
2023/12/17 05:29:39;;;;;;;19.75;8.07;;;;;;;8.17;100.00;103605.81;5040130;28;20036;-77
2023/12/17 05:32:05;;;;;;;21.52;9.48;;;;;;;8.21;100.00;103617.94;5019324;28;20444;-78
2023/12/17 05:34:30;;;;;;;21.55;8.57;;;;;;;8.20;100.00;103612.72;5018951;28;20042;-77
2023/12/17 05:36:56;;;;;;;21.50;9.27;;;;;;;8.20;100.00;103618.06;5040054;28;20361;-77
2023/12/17 05:39:21;;;;;;;23.40;7.85;;;;;;;8.19;100.00;103616.38;5038623;28;20092;-77
2023/12/17 05:41:46;;;;;;;19.63;7.50;;;;;;;8.18;100.00;103609.34;5039395;28;20394;-77
2023/12/17 05:44:12;;;;;;;22.25;7.80;;;;;;;8.18;100.00;103610.19;5028785;28;20037;-77
2023/12/17 05:46:37;;;;;;;23.05;9.23;;;;;;;8.16;100.00;103600.66;5043558;28;20466;-77
2023/12/17 05:49:02;;;;;;;21.90;8.80;;;;;;;8.13;100.00;103599.91;5038515;28;21102;-77
2023/12/17 05:51:28;;;;;;;23.23;9.23;;;;;;;8.15;100.00;103602.47;5041538;28;20025;-77
2023/12/17 05:53:53;;;;;;;20.65;8.50;;;;;;;8.12;100.00;103597.34;5028512;28;20047;-77
2023/12/17 05:56:19;;;;;;;21.80;9.40;;;;;;;8.11;100.00;103600.97;5027368;28;20476;-77
2023/12/17 05:58:45;;;;;;;20.65;7.57;;;;;;;8.16;100.00;103608.63;5042195;28;20037;-77
2023/12/17 06:01:11;;;;;;;22.15;9.60;;;;;;;8.12;100.00;103595.56;5038769;28;20106;-77
2023/12/17 06:03:36;;;;;;;20.48;8.00;;;;;;;8.10;100.00;103594.81;5040907;28;20110;-77
2023/12/17 06:06:02;;;;;;;21.42;7.82;;;;;;;8.15;100.00;103598.94;5041272;28;20057;-77
2023/12/17 06:08:27;;;;;;;23.25;9.23;;;;;;;8.09;100.00;103581.63;5044507;28;20029;-77
2023/12/17 06:10:53;;;;;;;21.17;8.63;;;;;;;8.12;100.00;103592.03;5033248;28;20041;-77
2023/12/17 06:13:18;;;;;;;23.73;10.35;;;;;;;8.09;100.00;103585.13;5024160;28;20033;-77
2023/12/17 06:15:44;;;;;;;20.88;8.20;;;;;;;8.12;100.00;103598.22;5034086;28;21002;-77
2023/12/17 06:18:09;;;;;;;19.25;7.25;;;;;;;8.12;100.00;103597.34;5036072;28;20481;-77
2023/12/17 06:20:35;;;;;;;20.02;7.63;;;;;;;8.11;100.00;103603.63;5040998;28;20167;-77
2023/12/17 06:23:00;;;;;;;17.17;7.75;;;;;;;8.08;100.00;103599.38;5037883;28;20028;-77
2023/12/17 06:25:25;;;;;;;24.80;9.18;;;;;;;8.08;100.00;103598.53;5044906;28;20029;-77
2023/12/17 06:27:52;;;;;;;22.92;9.30;;;;;;;8.03;100.00;103596.22;5031747;28;21090;-77
2023/12/17 06:30:18;;;;;;;20.48;8.68;;;;;;;8.05;100.00;103609.41;5037749;28;20032;-77
2023/12/17 06:32:44;;;;;;;19.48;8.18;;;;;;;8.05;100.00;103610.25;5041311;28;20033;-77
2023/12/17 06:35:09;;;;;;;23.25;9.48;;;;;;;8.05;100.00;103604.09;5018542;28;20032;-77
2023/12/17 06:37:35;;;;;;;17.80;6.85;;;;;;;8.04;100.00;103615.66;5045152;28;20036;-77
2023/12/17 06:40:00;;;;;;;22.35;8.48;;;;;;;8.03;100.00;103614.81;5035219;28;20983;-77
2023/12/17 06:42:26;;;;;;;18.52;7.07;;;;;;;7.98;100.00;103608.16;5035505;28;20056;-77
2023/12/17 06:44:51;;;;;;;17.33;6.55;;;;;;;8.00;100.00;103608.91;5031019;28;20065;-77
2023/12/17 06:47:17;;;;;;;18.42;6.47;;;;;;;7.99;100.00;103610.72;5017231;28;20041;-77
2023/12/17 06:49:43;;;;;;;16.63;6.28;;;;;;;7.98;100.00;103602.84;5038772;28;20114;-77
2023/12/17 06:52:09;;;;;;;14.55;5.70;;;;;;;7.94;100.00;103602.22;5006974;28;20492;-77
2023/12/17 06:54:34;;;;;;;17.02;6.03;;;;;;;7.97;100.00;103598.50;5040861;28;20017;-77
2023/12/17 06:57:00;;;;;;;15.38;6.55;;;;;;;7.89;100.00;103591.06;5035315;28;20033;-77
2023/12/17 06:59:25;;;;;;;16.08;6.15;;;;;;;7.96;100.00;103607.41;5030873;28;20039;-77
2023/12/17 07:01:51;;;;;;;15.95;5.45;;;;;;;7.89;100.00;103591.06;5031309;28;20383;-77
2023/12/17 07:04:16;;;;;;;14.95;5.38;;;;;;;7.95;100.00;103603.91;5022223;28;20136;-77
2023/12/17 07:06:41;;;;;;;14.02;5.95;;;;;;;7.95;100.00;103603.06;5020865;28;20044;-77
2023/12/17 07:09:07;;;;;;;16.45;7.03;;;;;;;7.96;100.00;103600.28;5040699;28;20568;-77
2023/12/17 07:11:33;;;;;;;15.27;6.07;;;;;;;7.96;100.00;103599.44;5038606;28;20435;-77
2023/12/17 07:13:58;;;;;;;16.92;5.97;;;;;;;7.96;100.00;103607.41;5036509;28;20026;-77
2023/12/17 07:16:25;;;;;;;14.38;6.63;;;;;;;7.94;100.00;103609.31;5034243;28;20121;-76
2023/12/17 07:18:51;;;;;;;18.85;6.88;;;;;;;7.94;100.00;103617.28;5035999;28;20028;-82
2023/12/17 07:21:17;;;;;;;14.38;6.20;;;;;;;7.94;100.00;103617.28;5039045;28;20041;-82
2023/12/17 07:23:43;;;;;;;19.30;7.10;;;;;;;7.93;100.00;103623.56;5031917;28;20025;-82
2023/12/17 07:26:08;;;;;;;24.90;8.25;;;;;;;7.94;100.00;103623.47;5016534;28;20491;-82
2023/12/17 07:28:33;;;;;;;18.63;7.00;;;;;;;7.91;100.00;103613.03;5034815;28;20052;-82
2023/12/17 07:30:59;;;;;;;19.02;6.40;;;;;;;7.95;100.00;103621.66;5039469;28;20087;-82
2023/12/17 07:33:24;;;;;;;18.17;7.82;;;;;;;7.95;100.00;103622.50;5022191;28;20038;-82
2023/12/17 07:35:50;;;;;;;20.60;8.77;;;;;;;7.94;100.00;103619.94;5021527;28;20037;-82
2023/12/17 07:38:16;;;;;;;19.90;9.25;;;;;;;7.90;100.00;103617.50;5039840;28;20033;-82
2023/12/17 07:40:42;;;;;;;18.63;8.18;;;;;;;7.86;100.00;103609.91;5037828;28;20116;-82
2023/12/17 07:43:07;;;;;;;18.35;7.25;;;;;;;7.90;100.00;103629.97;5039796;28;20120;-78
2023/12/17 07:45:33;;;;;;;30.98;8.07;;;;;;;7.84;100.00;103627.75;5038735;28;20029;-82
2023/12/17 07:47:59;;;;;;;21.88;8.23;;;;;;;7.86;100.00;103634.66;5038391;28;20032;-81
2023/12/17 07:50:24;;;;;;;18.20;7.15;;;;;;;7.84;100.00;103639.22;5038206;28;20045;-83
2023/12/17 07:52:50;;;;;;;16.52;6.03;;;;;;;7.86;100.00;103639.13;5039433;28;20424;-82
2023/12/17 07:55:15;;;;;;;14.90;6.13;;;;;;;7.86;100.00;103639.13;5038193;28;20468;-82
2023/12/17 07:57:41;;;;;;;19.23;7.50;;;;;;;7.81;100.00;103630.63;5037474;28;20175;-82
2023/12/17 08:00:08;;;;;;;15.38;7.43;;;;;;;7.84;100.00;103639.22;5019878;28;20035;-81
2023/12/17 08:02:33;;;;;;;17.42;7.10;;;;;;;7.78;100.00;103629.03;5039137;28;20029;-83
2023/12/17 08:04:59;;;;;;;14.40;5.50;;;;;;;7.82;100.00;103634.97;5021854;28;20052;-83
2023/12/17 08:07:24;;;;;;;19.20;7.18;;;;;;;7.79;100.00;103633.38;5039229;28;20035;-83
2023/12/17 08:09:50;;;;;;;16.40;6.55;;;;;;;7.82;100.00;103643.78;5005379;28;20111;-84
2023/12/17 08:12:15;;;;;;;18.42;7.32;;;;;;;7.82;100.00;103637.63;5037965;28;20503;-83
2023/12/17 08:14:41;;;;;;;18.92;7.25;;;;;;;7.81;100.00;103636.78;5037600;28;20471;-83
2023/12/17 08:17:07;;;;;;;16.80;6.35;;;;;;;7.82;100.00;103635.81;5037837;28;20033;-77
2023/12/17 08:19:32;;;;;;;18.48;7.10;;;;;;;7.81;100.00;103631.47;5037759;28;20049;-82
2023/12/17 08:21:58;;;;;;;17.17;6.65;;;;;;;7.75;100.00;103626.59;5038512;28;20029;-82
2023/12/17 08:24:24;;;;;;;15.77;6.22;;;;;;;7.78;100.00;103630.81;5021481;28;20389;-83
2023/12/17 08:26:50;;;;;;;16.40;6.78;;;;;;;7.78;100.00;103633.47;5038275;28;20072;-82
2023/12/17 08:29:16;;;;;;;15.85;5.65;;;;;;;7.77;100.00;103635.31;5020756;28;20062;-83
2023/12/17 08:31:45;;;;;;;19.00;6.78;;;;;;;7.79;100.00;103645.81;5004907;28;20033;-83
2023/12/17 08:34:11;;;;;;;15.95;6.18;;;;;;;7.76;100.00;103640.75;5021892;28;20033;-83
2023/12/17 08:36:36;;;;;;;17.73;6.43;;;;;;;7.76;100.00;103644.25;5022633;28;20043;-83
2023/12/17 08:39:05;;;;;;;14.85;5.70;;;;;;;7.71;100.00;103633.09;5037625;28;20057;-83
2023/12/17 08:41:31;;;;;;;16.73;6.47;;;;;;;7.75;100.00;103647.00;5038272;28;20044;-84
2023/12/17 08:43:56;;;;;;;14.15;5.25;;;;;;;7.72;100.00;103636.59;5040105;28;20420;-83
2023/12/17 08:46:22;;;;;;;16.35;5.85;;;;;;;7.65;100.00;103637.03;5025204;28;20032;-84
2023/12/17 08:48:47;;;;;;;10.85;3.95;;;;;;;7.66;100.00;103637.88;5043313;28;20068;-83
2023/12/17 08:51:12;;;;;;;15.13;5.60;;;;;;;7.69;100.00;103648.28;5008925;28;20094;-83
2023/12/17 08:53:39;;;;;;;12.90;4.60;;;;;;;7.68;100.00;103643.94;5042873;28;20127;-81
2023/12/17 08:56:07;;;;;;;12.20;5.60;;;;;;;7.62;100.00;103641.69;5040901;28;20088;-82
2023/12/17 08:58:33;;;;;;;13.27;5.35;;;;;;;7.61;100.00;103650.63;5024176;28;20041;-82
2023/12/17 09:00:58;;;;;;;14.35;5.10;;;;;;;7.56;100.00;103637.66;5041814;28;21040;-80
2023/12/17 09:03:23;;;;;;;13.23;5.20;;;;;;;7.56;100.00;103644.78;5024637;28;20038;-77
2023/12/17 09:05:49;;;;;;;13.30;5.35;;;;;;;7.57;100.00;103646.47;5041487;28;20037;-79
2023/12/17 09:08:14;;;;;;;14.35;5.15;;;;;;;7.52;100.00;103632.66;5039739;28;20409;-83
2023/12/17 09:10:39;;;;;;;14.73;5.53;;;;;;;7.53;100.00;103629.06;5039556;28;20033;-81
2023/12/17 09:13:05;;;;;;;13.38;5.82;;;;;;;7.51;100.00;103641.59;5041141;28;20025;-80
2023/12/17 09:15:30;;;;;;;14.40;5.72;;;;;;;7.50;100.00;103627.50;5043470;28;20123;-80
2023/12/17 09:17:55;;;;;;;11.98;5.25;;;;;;;7.52;100.00;103630.03;5039397;28;20116;-80
2023/12/17 09:20:21;;;;;;;16.77;5.53;;;;;;;7.50;100.00;103635.47;5039340;28;20033;-80
2023/12/17 09:22:46;;;;;;;13.93;5.30;;;;;;;7.51;100.00;103633.63;5040051;28;20033;-81
2023/12/17 09:25:12;;;;;;;14.75;6.15;;;;;;;7.51;100.00;103638.94;5039876;28;20037;-81
2023/12/17 09:27:38;;;;;;;17.48;6.30;;;;;;;7.49;100.00;103640.84;5039810;28;20105;-80
2023/12/17 09:30:04;;;;;;;15.23;5.35;;;;;;;7.42;100.00;103640.47;5038620;28;20037;-83
2023/12/17 09:32:30;;;;;;;16.58;5.65;;;;;;;7.42;100.00;103640.47;5034189;28;20033;-81
2023/12/17 09:34:56;;;;;;;16.58;5.75;;;;;;;7.40;100.00;103637.06;5022890;28;20036;-81
2023/12/17 09:37:21;;;;;;;16.25;6.72;;;;;;;7.37;100.00;103640.78;5039959;28;20037;-82
2023/12/17 09:39:46;;;;;;;16.80;6.60;;;;;;;7.33;100.00;103633.97;5035839;28;20107;-81
2023/12/17 09:42:12;;;;;;;14.27;5.47;;;;;;;7.35;100.00;103655.09;5018340;28;20691;-80
2023/12/17 09:44:39;;;;;;;15.13;5.93;;;;;;;7.29;100.00;103650.22;5036730;28;20416;-81
2023/12/17 09:47:04;;;;;;;14.20;5.68;;;;;;;7.22;100.00;103645.31;5006119;28;20038;-82
2023/12/17 09:49:30;;;;;;;17.45;6.50;;;;;;;7.27;100.00;103652.13;5015392;28;20032;-82
2023/12/17 09:52:04;;;;;;;18.02;6.82;;;;;;;7.22;100.00;103649.78;5043487;28;20033;-80
2023/12/17 09:54:30;;;;;;;17.55;6.28;;;;;;;7.20;100.00;103657.88;5035536;28;20472;-82
2023/12/17 09:56:56;;;;;;;20.80;8.52;;;;;;;7.14;100.00;103652.13;5038411;28;20091;-81
2023/12/17 09:59:22;;;;;;;17.73;7.03;;;;;;;7.07;100.00;103649.03;5039106;28;20029;-82
2023/12/17 10:01:48;;;;;;;20.63;6.82;;;;;;;7.09;100.00;103643.63;5040833;28;20033;-81
2023/12/17 10:04:13;;;;;;;19.52;8.27;;;;;;;7.05;100.00;103653.59;5036050;28;20017;-81
2023/12/17 10:06:38;;;;;;;20.45;7.18;;;;;;;7.01;100.00;103649.44;5022348;28;20025;-82
2023/12/17 10:09:06;;;;;;;19.20;7.50;;;;;;;6.95;100.00;103653.38;5034399;28;20061;-82
2023/12/17 10:11:32;;;;;;;20.25;7.95;;;;;;;6.95;100.00;103647.22;5036668;28;20083;-82
2023/12/17 10:14:00;;;;;;;20.80;8.52;;;;;;;6.92;100.00;103644.78;5022725;28;20423;-82
2023/12/17 10:16:26;;;;;;;19.95;8.32;;;;;;;6.92;100.00;103645.63;5038261;28;20480;-82
2023/12/17 10:18:52;;;;;;;22.10;7.88;;;;;;;6.97;100.00;103653.28;5036782;28;20201;-77
2023/12/17 10:21:17;;;;;;;20.33;8.10;;;;;;;6.96;100.00;103654.22;5039553;28;20151;-81
2023/12/17 10:23:46;;;;;;;20.60;7.82;;;;;;;6.98;100.00;103654.97;5037836;28;20107;-81
2023/12/17 10:26:12;;;;;;;19.63;7.35;;;;;;;6.97;100.00;103667.41;5035433;28;20028;-81
2023/12/17 10:28:42;;;;;;;21.77;8.55;;;;;;;6.95;100.00;103666.63;5033309;28;20932;-81
2023/12/17 10:31:10;;;;;;;17.92;7.07;;;;;;;6.93;100.00;103665.03;5035748;28;20044;-82
2023/12/17 10:33:43;;;;;;;16.88;7.90;;;;;;;6.91;100.00;103654.50;5033778;28;20025;-82
2023/12/17 10:36:10;;;;;;;19.40;7.13;;;;;;;6.93;100.00;103657.94;5038654;28;20111;-82
2023/12/17 10:38:37;;;;;;;21.80;7.82;;;;;;;6.97;100.00;103663.91;5020786;28;20041;-82
2023/12/17 10:41:03;;;;;;;20.88;7.80;;;;;;;6.95;100.00;103649.88;5023297;28;20041;-81
2023/12/17 10:43:31;;;;;;;23.20;9.55;;;;;;;6.98;100.00;103647.00;5022572;28;20622;-81
2023/12/17 10:45:59;;;;;;;21.63;8.45;;;;;;;7.01;100.00;103639.69;5031744;28;20037;-81
2023/12/17 10:48:25;;;;;;;19.25;9.45;;;;;;;7.01;100.00;103644.16;5019941;28;20025;-81
2023/12/17 10:50:51;;;;;;;18.70;8.20;;;;;;;7.03;100.00;103628.97;5022183;28;20033;-81
2023/12/17 10:53:17;;;;;;;24.73;9.63;;;;;;;7.07;100.00;103642.88;5020934;28;20491;-82
2023/12/17 10:55:42;;;;;;;26.58;12.55;;;;;;;7.03;100.00;103636.94;5020510;28;20029;-82
2023/12/17 10:58:15;;;;;;;21.65;8.43;;;;;;;7.08;100.00;103637.47;5021221;28;20129;-82
2023/12/17 11:00:40;;;;;;;20.67;8.30;;;;;;;7.09;100.00;103623.25;5036971;28;20060;-81
2023/12/17 11:03:08;;;;;;;27.50;12.35;;;;;;;7.17;100.00;103625.38;5018457;28;20042;-82
2023/12/17 11:05:33;;;;;;;25.98;10.55;;;;;;;7.15;100.00;103616.66;5036885;28;20025;-82
2023/12/17 11:07:59;;;;;;;23.58;10.50;;;;;;;7.23;100.00;103619.63;5037527;28;20024;-82